Terminal Aerodrome Forecast
Issued by NWS Charleston, WV

Current Version | Previous Version | Graphics & Text | Print | Product List | Glossary On
Versions: 1 2 3 4 5 6 7 8 9 10 11 12 13 14 15 16 17 18 19 20 21 22 23 24 25
000
FTUS41 KRLX 041725
TAFEKN
TAF
KEKN 041725Z 0418/0518 31005KT P6SM SCT050
     FM050300 00000KT 4SM BR SCT250
     FM050400 00000KT 1/4SM FG OVC001
     FM051200 00000KT 2SM BR BKN001
     FM051300 00000KT 6SM HZ SCT250=

USA.gov is the U.S. government's official web portal to all federal, state and local government web resources and services.